Time;durP1;ratioP1;P1;durP2;ratioP2;P2;SDS_P1;SDS_P2;PMS_P1;PMS_P2;Temp;Humidity;BMP_temperature;BMP_pressure;BME280_temperature;BME280_humidity;BME280_pressure;Samples;Min_cycle;Max_cycle;Signal;HPM_P1;HPM_P2
2022/02/20 00:01:13;;;;;;;;;;;;;;;14.56;54.50;101702.56;145002;924;1020;-87
2022/02/20 00:03:39;;;;;;;;;;;;;;;14.61;54.75;101700.09;145002;921;1018;-89
2022/02/20 00:06:06;;;;;;;;;;;;;;;14.65;54.48;101689.78;145002;925;1019;-86
2022/02/20 00:08:33;;;;;;;;;;;;;;;14.68;54.52;101686.34;145002;937;1020;-88
2022/02/20 00:11:08;;;;;;;;;;;;;;;14.71;54.31;101689.06;145002;925;1019;-88
2022/02/20 00:13:54;;;;;;;;;;;;;;;14.75;54.03;101693.53;145002;497;1448;-89
2022/02/20 00:16:20;;;;;;;;;;;;;;;14.81;54.41;101687.59;145002;925;1017;-88
2022/02/20 00:18:57;;;;;;;;;;;;;;;14.86;54.40;101691.25;145002;920;1017;-92
2022/02/20 00:21:30;;;;;;;;;;;;;;;14.90;54.07;101694.81;145002;608;1402;-86
2022/02/20 00:24:28;;;;;;;;;;;;;;;14.90;54.05;101685.22;145002;459;1436;-86
2022/02/20 00:26:59;;;;;;;;;;;;;;;14.94;54.19;101694.94;145002;585;1406;-87
2022/02/20 00:29:29;;;;;;;;;;;;;;;14.98;54.13;101678.47;145002;600;1399;-87
2022/02/20 00:31:58;;;;;;;;;;;;;;;15.02;54.29;101685.56;145002;498;1419;-88
2022/02/20 00:37:13;;;;;;;;;;;;;;;15.06;54.42;101683.91;145002;580;1442;-89
2022/02/20 00:39:45;;;;;;;;;;;;;;;15.07;54.55;101682.22;145002;572;1460;-88
2022/02/20 00:42:22;;;;;;;;;;;;;;;15.06;54.55;101683.91;145002;566;1421;-86
2022/02/20 00:50:00;;;;;;;;;;;;;;;15.09;54.55;101676.16;145002;730;1260;-87
2022/02/20 00:52:29;;;;;;;;;;;;;;;15.05;54.42;101674.31;145002;926;1018;-88
2022/02/20 00:54:56;;;;;;;;;;;;;;;15.03;54.62;101673.38;145002;920;1016;-88
2022/02/20 00:57:22;;;;;;;;;;;;;;;14.98;54.44;101673.25;145002;924;1020;-88
2022/02/20 00:59:48;;;;;;;;;;;;;;;14.92;54.40;101673.09;145002;903;1016;-89
2022/02/20 01:02:16;;;;;;;;;;;;;;;14.86;54.54;101668.59;145002;920;1019;-84
2022/02/20 01:04:42;;;;;;;;;;;;;;;14.81;54.59;101664.97;145002;920;1020;-88
2022/02/20 01:07:08;;;;;;;;;;;;;;;14.74;54.58;101664.75;145002;924;1017;-88
2022/02/20 01:09:34;;;;;;;;;;;;;;;14.68;54.53;101655.91;145002;916;1020;-88
2022/02/20 01:11:59;;;;;;;;;;;;;;;14.63;54.81;101659.22;145002;920;1022;-86
2022/02/20 01:14:26;;;;;;;;;;;;;;;14.59;54.78;101653.00;145002;920;1020;-89
2022/02/20 01:16:52;;;;;;;;;;;;;;;14.56;54.99;101646.81;145002;924;1017;-90
2022/02/20 01:19:18;;;;;;;;;;;;;;;14.56;55.05;101639.84;145002;921;1019;-86
2022/02/20 01:21:45;;;;;;;;;;;;;;;14.59;55.37;101644.28;145002;920;1016;-87
2022/02/20 01:24:11;;;;;;;;;;;;;;;14.61;55.20;101640.88;145002;919;1016;-86
2022/02/20 01:26:37;;;;;;;;;;;;;;;14.62;55.28;101641.75;145002;920;1017;-87
2022/02/20 01:29:04;;;;;;;;;;;;;;;14.64;55.34;101646.19;145002;921;1019;-87
2022/02/20 01:31:30;;;;;;;;;;;;;;;14.63;55.29;101643.53;145002;924;1017;-88
2022/02/20 01:33:56;;;;;;;;;;;;;;;14.61;55.15;101635.66;145002;916;1020;-88
2022/02/20 01:36:24;;;;;;;;;;;;;;;14.57;55.36;101632.88;145002;924;1021;-89
2022/02/20 01:38:50;;;;;;;;;;;;;;;14.55;55.41;101634.56;145002;920;1017;-86
2022/02/20 01:41:16;;;;;;;;;;;;;;;14.50;55.48;101619.63;145002;920;1018;-88
2022/02/20 01:43:42;;;;;;;;;;;;;;;14.47;55.51;101611.72;145002;920;1020;-88
2022/02/20 01:46:08;;;;;;;;;;;;;;;14.45;55.49;101618.62;145002;924;1021;-86
2022/02/20 01:48:36;;;;;;;;;;;;;;;14.43;55.47;101611.62;145002;916;1016;-88
2022/02/20 01:51:05;;;;;;;;;;;;;;;14.41;55.44;101606.34;145002;924;1018;-87
2022/02/20 01:53:31;;;;;;;;;;;;;;;14.41;55.44;101605.44;145002;920;1021;-89
2022/02/20 01:55:58;;;;;;;;;;;;;;;14.39;55.45;101605.41;145002;924;1023;-88
2022/02/20 01:58:23;;;;;;;;;;;;;;;14.38;55.56;101601.03;145002;920;1018;-88
2022/02/20 02:00:53;;;;;;;;;;;;;;;14.38;55.47;101607.97;145002;920;1020;-85
2022/02/20 02:03:20;;;;;;;;;;;;;;;14.34;55.71;101602.66;145002;920;1020;-86
2022/02/20 02:05:47;;;;;;;;;;;;;;;14.34;55.52;101601.78;145002;924;1021;-86
2022/02/20 02:08:16;;;;;;;;;;;;;;;14.34;55.87;101607.00;145002;920;1021;-87
2022/02/20 02:10:42;;;;;;;;;;;;;;;14.32;55.81;101606.06;145002;924;1020;-87
2022/02/20 02:13:08;;;;;;;;;;;;;;;14.32;55.71;101606.06;145002;920;1017;-88
2022/02/20 02:15:34;;;;;;;;;;;;;;;14.30;55.67;101599.91;145002;924;1017;-89
2022/02/20 02:18:00;;;;;;;;;;;;;;;14.29;55.85;101596.41;145002;920;1021;-87
2022/02/20 02:20:27;;;;;;;;;;;;;;;14.29;55.74;101593.81;145002;924;1020;-86
2022/02/20 02:22:53;;;;;;;;;;;;;;;14.31;55.76;101599.94;145002;920;1017;-89
2022/02/20 02:25:19;;;;;;;;;;;;;;;14.32;55.78;101604.34;145002;920;1016;-87
2022/02/20 02:27:45;;;;;;;;;;;;;;;14.34;55.61;101609.59;145002;916;1021;-89
2022/02/20 02:30:13;;;;;;;;;;;;;;;14.34;55.50;101607.88;145002;920;1017;-86
2022/02/20 02:32:44;;;;;;;;;;;;;;;14.37;55.50;101608.81;145002;560;1529;-90
2022/02/20 02:35:11;;;;;;;;;;;;;;;14.42;55.75;101617.66;144999;561;2000;-87
2022/02/20 02:37:37;;;;;;;;;;;;;;;14.44;55.25;101623.81;145002;922;1020;-86
2022/02/20 02:40:04;;;;;;;;;;;;;;;14.43;55.48;101620.31;145002;923;1021;-87
2022/02/20 02:42:30;;;;;;;;;;;;;;;14.42;54.98;101615.94;145002;923;1018;-88
2022/02/20 02:44:56;;;;;;;;;;;;;;;14.41;55.74;101616.78;145002;918;1021;-88
2022/02/20 02:47:22;;;;;;;;;;;;;;;14.40;55.08;101614.13;145002;918;1020;-88
2022/02/20 02:49:48;;;;;;;;;;;;;;;14.39;55.05;101612.34;145002;923;1017;-86
2022/02/20 02:52:15;;;;;;;;;;;;;;;14.37;55.40;101609.69;145002;922;1018;-87
2022/02/20 02:54:41;;;;;;;;;;;;;;;14.28;55.71;101601.59;145002;923;1021;-90
2022/02/20 02:57:07;;;;;;;;;;;;;;;14.26;55.47;101595.44;145002;919;1022;-87
2022/02/20 02:59:33;;;;;;;;;;;;;;;14.24;55.87;101591.94;145002;923;1017;-89
2022/02/20 03:02:03;;;;;;;;;;;;;;;14.22;55.29;101598.81;145002;923;1017;-88
2022/02/20 03:04:29;;;;;;;;;;;;;;;14.20;55.85;101593.53;145002;923;1017;-86
2022/02/20 03:06:55;;;;;;;;;;;;;;;14.18;55.16;101594.34;145002;922;1020;-90
2022/02/20 03:09:21;;;;;;;;;;;;;;;14.16;55.89;101589.09;145002;918;1017;-88
2022/02/20 03:11:48;;;;;;;;;;;;;;;14.15;55.50;101598.63;145002;923;1022;-89
2022/02/20 03:14:17;;;;;;;;;;;;;;;14.16;55.90;101596.91;145001;666;1988;-88
2022/02/20 03:19:16;;;;;;;;;;;;;;;14.27;55.76;101597.19;145002;598;1408;-87
2022/02/20 03:21:42;;;;;;;;;;;;;;;14.29;55.80;101599.03;145002;926;1020;-88
2022/02/20 03:24:08;;;;;;;;;;;;;;;14.31;55.74;101597.34;145002;924;1016;-87
2022/02/20 03:26:34;;;;;;;;;;;;;;;14.32;55.70;101590.41;145002;921;1017;-89
2022/02/20 03:28:59;;;;;;;;;;;;;;;14.17;55.55;101593.44;145002;920;1022;-87
2022/02/20 03:31:25;;;;;;;;;;;;;;;14.17;56.03;101589.97;145002;920;1020;-89
2022/02/20 03:33:51;;;;;;;;;;;;;;;14.12;55.93;101588.09;145002;921;1019;-87
2022/02/20 03:36:18;;;;;;;;;;;;;;;14.12;55.92;101592.44;145002;924;1020;-87
2022/02/20 03:38:43;;;;;;;;;;;;;;;14.10;55.87;101592.38;145002;924;1017;-87
2022/02/20 03:41:10;;;;;;;;;;;;;;;14.09;56.13;101593.25;145002;921;1019;-83
2022/02/20 03:43:36;;;;;;;;;;;;;;;14.09;56.00;101581.91;145002;925;1020;-87
2022/02/20 03:46:02;;;;;;;;;;;;;;;13.91;56.53;101614.44;145002;921;1019;-88
2022/02/20 03:48:28;;;;;;;;;;;;;;;13.93;56.77;101599.72;145002;925;1016;-87
2022/02/20 03:50:54;;;;;;;;;;;;;;;13.84;56.71;101606.37;145002;925;1018;-87
2022/02/20 03:53:20;;;;;;;;;;;;;;;13.81;56.99;101601.06;145002;920;1017;-84
2022/02/20 03:55:46;;;;;;;;;;;;;;;13.77;57.11;101608.81;145002;925;1019;-85
2022/02/20 03:58:12;;;;;;;;;;;;;;;13.77;57.19;101603.56;145002;921;1017;-88
2022/02/20 04:00:38;;;;;;;;;;;;;;;13.83;57.04;101597.69;145002;925;1022;-90
2022/02/20 04:03:04;;;;;;;;;;;;;;;13.84;56.67;101596.84;145002;925;1021;-87
2022/02/20 04:05:30;;;;;;;;;;;;;;;13.81;56.98;101601.06;145002;925;1017;-86
2022/02/20 04:07:56;;;;;;;;;;;;;;;13.82;56.86;101595.03;145002;925;1020;-86
2022/02/20 04:10:22;;;;;;;;;;;;;;;13.83;57.23;101596.81;145002;921;1018;-88
2022/02/20 04:12:48;;;;;;;;;;;;;;;13.85;57.11;101602.94;145002;925;1019;-88
2022/02/20 04:15:16;;;;;;;;;;;;;;;13.71;57.52;101600.81;145002;924;1021;-89
2022/02/20 04:17:43;;;;;;;;;;;;;;;13.72;57.40;101591.25;145002;925;1019;-88
2022/02/20 04:25:17;;;;;;;;;;;;;;;13.93;57.29;101601.44;145002;644;1454;-87
2022/02/20 04:27:45;;;;;;;;;;;;;;;13.94;56.86;101590.19;145002;925;1021;-89
2022/02/20 04:30:15;;;;;;;;;;;;;;;13.93;57.44;101593.63;145002;919;1018;-86
2022/02/20 04:32:41;;;;;;;;;;;;;;;13.94;56.80;101593.66;145002;924;1017;-88
2022/02/20 04:35:08;;;;;;;;;;;;;;;13.94;56.96;101601.50;145002;916;1019;-89
2022/02/20 04:37:35;;;;;;;;;;;;;;;13.92;56.72;101591.88;145002;923;1020;-89
2022/02/20 04:40:01;;;;;;;;;;;;;;;13.92;56.93;101592.75;145002;919;1016;-87
2022/02/20 04:42:30;;;;;;;;;;;;;;;13.90;56.83;101583.09;145002;924;1017;-88
2022/02/20 04:44:56;;;;;;;;;;;;;;;13.87;57.43;101585.59;145002;919;1018;-87
2022/02/20 04:47:22;;;;;;;;;;;;;;;13.85;57.50;101589.91;145002;924;1019;-87
2022/02/20 04:49:48;;;;;;;;;;;;;;;13.83;57.58;101586.37;145002;920;1023;-86
2022/02/20 04:52:14;;;;;;;;;;;;;;;13.81;57.70;101581.09;145002;919;1017;-88
2022/02/20 04:54:40;;;;;;;;;;;;;;;13.76;58.39;101587.88;145002;916;1019;-88
2022/02/20 04:57:07;;;;;;;;;;;;;;;13.74;57.80;101587.84;145002;924;1017;-88
2022/02/20 04:59:33;;;;;;;;;;;;;;;13.78;58.08;101594.06;145002;919;1020;-87
2022/02/20 05:01:59;;;;;;;;;;;;;;;13.83;58.10;101586.37;145002;924;1017;-87
2022/02/20 05:04:26;;;;;;;;;;;;;;;13.89;58.39;101591.78;145002;920;1018;-87
2022/02/20 05:06:52;;;;;;;;;;;;;;;13.95;57.81;101612.81;145002;923;1016;-87
2022/02/20 05:09:18;;;;;;;;;;;;;;;13.98;58.19;101620.72;145002;920;1018;-87
2022/02/20 05:11:44;;;;;;;;;;;;;;;14.00;58.23;101624.31;145002;924;1018;-87
2022/02/20 05:14:11;;;;;;;;;;;;;;;13.99;57.73;101627.75;145002;919;1020;-88
2022/02/20 05:16:38;;;;;;;;;;;;;;;13.96;57.90;101627.66;145002;923;1016;-88
2022/02/20 05:19:04;;;;;;;;;;;;;;;13.96;58.07;101627.66;145002;920;1021;-88
2022/02/20 05:21:30;;;;;;;;;;;;;;;13.91;58.02;101631.84;145002;923;1021;-88
2022/02/20 05:23:56;;;;;;;;;;;;;;;13.89;58.19;101616.13;145002;920;1017;-88
2022/02/20 05:26:22;;;;;;;;;;;;;;;13.88;58.15;101614.34;145002;920;1018;-87
2022/02/20 05:28:48;;;;;;;;;;;;;;;13.89;58.11;101608.31;145002;919;1017;-86
2022/02/20 05:31:14;;;;;;;;;;;;;;;13.89;57.83;101605.69;145002;924;1021;-89
2022/02/20 05:33:40;;;;;;;;;;;;;;;13.89;57.66;101604.81;145002;916;1018;-87
2022/02/20 05:36:07;;;;;;;;;;;;;;;13.86;57.88;101600.38;145002;923;1021;-89
2022/02/20 05:38:33;;;;;;;;;;;;;;;13.84;58.44;101604.69;145002;919;1018;-86
2022/02/20 05:40:59;;;;;;;;;;;;;;;13.71;59.73;101613.84;145002;924;1019;-87
2022/02/20 05:43:25;;;;;;;;;;;;;;;13.77;58.40;101606.19;145002;915;1017;-89
2022/02/20 05:45:53;;;;;;;;;;;;;;;13.78;58.51;101594.94;145002;920;1017;-85
2022/02/20 05:48:19;;;;;;;;;;;;;;;13.77;58.67;101603.56;145002;920;1017;-86
2022/02/20 05:50:46;;;;;;;;;;;;;;;13.76;58.36;101604.44;145002;919;1019;-87
2022/02/20 05:53:12;;;;;;;;;;;;;;;13.77;58.25;101611.41;145002;919;1016;-86
2022/02/20 05:55:38;;;;;;;;;;;;;;;13.77;58.28;101616.63;145002;924;1018;-88
2022/02/20 05:58:04;;;;;;;;;;;;;;;13.77;58.02;101608.81;145002;915;1019;-87
2022/02/20 06:00:30;;;;;;;;;;;;;;;13.81;58.00;101614.13;145002;923;1016;-88
2022/02/20 06:02:56;;;;;;;;;;;;;;;13.81;58.27;101615.03;145002;916;1018;-87
2022/02/20 06:05:22;;;;;;;;;;;;;;;13.83;58.45;101620.28;145002;919;1021;-88
2022/02/20 06:07:50;;;;;;;;;;;;;;;13.87;58.38;101629.97;145002;919;1018;-89
2022/02/20 06:12:51;;;;;;;;;;;;;;;14.01;58.21;101646.06;145002;652;1347;-85
2022/02/20 06:15:27;;;;;;;;;;;;;;;14.08;58.18;101645.41;145002;433;1391;-85
2022/02/20 06:23:03;;;;;;;;;;;;;;;14.27;57.66;101597.19;145002;630;1362;-89
2022/02/20 06:25:33;;;;;;;;;;;;;;;14.30;57.56;101589.47;145002;925;1017;-87
2022/02/20 06:28:09;;;;;;;;;;;;;;;14.33;57.43;101590.44;145002;920;1016;-88
2022/02/20 06:33:20;;;;;;;;;;;;;;;14.41;57.42;101605.44;145002;582;1420;-89
2022/02/20 06:35:54;;;;;;;;;;;;;;;14.40;57.77;101603.69;145002;587;1389;-84
2022/02/20 06:38:27;;;;;;;;;;;;;;;14.43;57.72;101603.78;145001;594;2000;-88
2022/02/20 06:48:41;;;;;;;;;;;;;;;14.60;57.47;101606.87;145002;539;1421;-87
2022/02/20 06:51:06;;;;;;;;;;;;;;;14.56;57.19;101623.28;145002;924;1020;-87
2022/02/20 06:53:33;;;;;;;;;;;;;;;14.48;57.21;101628.28;145002;916;1016;-89
2022/02/20 06:55:59;;;;;;;;;;;;;;;14.31;57.55;101638.25;145002;925;1018;-87
2022/02/20 06:58:25;;;;;;;;;;;;;;;14.33;58.08;101642.69;145002;920;1018;-88
2022/02/20 07:00:51;;;;;;;;;;;;;;;14.19;57.90;101643.09;145002;920;1016;-87
2022/02/20 07:03:17;;;;;;;;;;;;;;;14.19;57.58;101637.88;145002;921;1020;-87
2022/02/20 07:05:43;;;;;;;;;;;;;;;14.21;58.28;101638.84;145002;920;1018;-87
2022/02/20 07:08:09;;;;;;;;;;;;;;;14.21;57.68;101634.50;145002;920;1020;-89
2022/02/20 07:10:35;;;;;;;;;;;;;;;14.21;58.28;101641.44;145002;925;1017;-87
2022/02/20 07:13:01;;;;;;;;;;;;;;;14.18;57.69;101638.75;145002;920;1018;-88
2022/02/20 07:15:40;;;;;;;;;;;;;;;14.18;57.72;101637.00;145002;920;1016;-88
2022/02/20 07:18:07;;;;;;;;;;;;;;;14.13;58.00;101641.22;145002;921;1020;-88
2022/02/20 07:20:33;;;;;;;;;;;;;;;14.16;57.60;101636.09;145002;924;1019;-86
2022/02/20 07:22:59;;;;;;;;;;;;;;;14.20;58.17;101634.44;145002;920;1020;-85
2022/02/20 07:25:25;;;;;;;;;;;;;;;14.21;57.60;101612.72;145002;925;1021;-86
2022/02/20 07:27:54;;;;;;;;;;;;;;;14.22;57.61;101614.47;145002;920;1019;-87
2022/02/20 07:30:21;;;;;;;;;;;;;;;14.22;57.80;101635.38;145001;924;2000;-87
2022/02/20 07:32:47;;;;;;;;;;;;;;;14.20;58.26;101635.31;145002;921;1018;-86
2022/02/20 07:35:13;;;;;;;;;;;;;;;14.19;58.50;101630.06;145002;924;1021;-86
2022/02/20 07:37:39;;;;;;;;;;;;;;;14.19;58.44;101630.06;145002;920;1020;-86
2022/02/20 07:40:07;;;;;;;;;;;;;;;14.14;58.38;101617.75;145002;920;1023;-88
2022/02/20 07:42:34;;;;;;;;;;;;;;;14.16;58.29;101623.03;145002;920;1019;-90
2022/02/20 07:45:00;;;;;;;;;;;;;;;14.15;58.68;101616.91;145002;924;1020;-87
2022/02/20 07:47:26;;;;;;;;;;;;;;;14.16;58.45;101620.41;145002;916;1019;-88
2022/02/20 07:49:52;;;;;;;;;;;;;;;14.18;58.21;101617.84;145002;924;1020;-87
2022/02/20 07:52:21;;;;;;;;;;;;;;;14.18;58.71;101621.34;145002;920;1017;-88
2022/02/20 07:54:46;;;;;;;;;;;;;;;14.17;58.85;101630.00;145002;925;1018;-87
2022/02/20 07:57:26;;;;;;;;;;;;;;;14.21;58.92;101628.41;145002;916;1016;-88
2022/02/20 07:59:53;;;;;;;;;;;;;;;14.28;59.02;101617.25;145001;647;2000;-88
2022/02/20 08:02:21;;;;;;;;;;;;;;;14.36;59.13;101609.66;145002;923;1020;-88
2022/02/20 08:04:49;;;;;;;;;;;;;;;14.36;58.70;101620.09;145001;922;2000;-88
2022/02/20 08:07:15;;;;;;;;;;;;;;;14.38;58.87;101626.25;145002;922;1020;-86
2022/02/20 08:09:41;;;;;;;;;;;;;;;14.37;58.96;101622.75;145002;919;1020;-86
2022/02/20 08:12:08;;;;;;;;;;;;;;;14.35;58.94;101619.22;145001;922;2000;-84
2022/02/20 08:14:34;;;;;;;;;;;;;;;14.32;59.57;101617.41;145002;922;1021;-85
2022/02/20 08:17:03;;;;;;;;;;;;;;;13.95;61.14;101638.91;145002;919;1017;-85
2022/02/20 08:19:29;;;;;;;;;;;;;;;14.00;59.76;101633.84;145002;923;1021;-85
2022/02/20 08:21:55;;;;;;;;;;;;;;;13.87;60.42;101629.97;145002;922;1020;-86
2022/02/20 08:24:21;;;;;;;;;;;;;;;13.93;60.43;101627.53;145002;926;1018;-83
2022/02/20 08:26:47;;;;;;;;;;;;;;;13.99;60.15;101632.09;145002;922;1018;-87
2022/02/20 08:29:13;;;;;;;;;;;;;;;14.03;60.67;101642.66;145002;918;1022;-85
2022/02/20 08:31:40;;;;;;;;;;;;;;;14.09;60.26;101637.63;145002;923;1017;-87
2022/02/20 08:34:06;;;;;;;;;;;;;;;14.13;60.13;101626.44;145002;922;1017;-87
2022/02/20 08:36:47;;;;;;;;;;;;;;;14.18;60.33;101636.13;145002;922;1020;-83
2022/02/20 08:39:14;;;;;;;;;;;;;;;14.21;60.05;101618.81;145002;923;1019;-85
2022/02/20 08:41:40;;;;;;;;;;;;;;;14.25;60.21;101612.84;145002;918;1020;-84
2022/02/20 08:44:06;;;;;;;;;;;;;;;14.29;60.20;101601.62;145002;922;1020;-85
2022/02/20 08:46:32;;;;;;;;;;;;;;;14.29;60.19;101601.62;145002;923;1017;-85
2022/02/20 08:48:59;;;;;;;;;;;;;;;14.30;59.76;101603.41;145002;923;1020;-87
2022/02/20 08:51:25;;;;;;;;;;;;;;;14.28;60.49;101609.44;145001;922;2000;-86
2022/02/20 08:53:51;;;;;;;;;;;;;;;14.24;60.61;101603.25;145001;923;2000;-85
2022/02/20 08:56:19;;;;;;;;;;;;;;;14.28;60.69;101610.31;145002;923;1020;-87
2022/02/20 08:58:49;;;;;;;;;;;;;;;14.29;60.86;101612.09;145002;923;1016;-82
2022/02/20 09:01:15;;;;;;;;;;;;;;;14.34;60.51;101620.06;145002;923;1016;-86
2022/02/20 09:03:41;;;;;;;;;;;;;;;14.39;60.58;101617.59;145002;923;1020;-87
2022/02/20 09:06:07;;;;;;;;;;;;;;;14.45;60.10;101628.22;145002;923;1020;-86
2022/02/20 09:08:41;;;;;;;;;;;;;;;14.51;60.30;101639.72;145002;923;1020;-87
2022/02/20 09:11:09;;;;;;;;;;;;;;;14.56;60.40;101634.63;145002;923;1021;-87
2022/02/20 09:16:16;;;;;;;;;;;;;;;14.46;60.87;101627.34;145002;929;1016;-86
2022/02/20 09:18:43;;;;;;;;;;;;;;;14.62;60.65;101606.09;145002;923;1017;-86
2022/02/20 09:21:09;;;;;;;;;;;;;;;14.71;59.91;101615.00;145002;922;1020;-85
2022/02/20 09:23:35;;;;;;;;;;;;;;;14.76;59.47;101611.69;145002;923;1020;-87
2022/02/20 09:26:02;;;;;;;;;;;;;;;14.79;59.43;101606.50;145002;924;1020;-85
2022/02/20 09:28:30;;;;;;;;;;;;;;;14.80;59.34;101604.81;145002;922;1016;-87
2022/02/20 09:31:01;;;;;;;;;;;;;;;14.51;60.63;101605.75;145002;923;1022;-87
2022/02/20 09:33:27;;;;;;;;;;;;;;;14.42;60.41;101599.37;145002;923;1018;-86
2022/02/20 09:35:53;;;;;;;;;;;;;;;14.47;60.08;101608.22;145002;922;1021;-86
2022/02/20 09:38:19;;;;;;;;;;;;;;;14.51;60.64;101605.75;145002;918;1017;-86
2022/02/20 09:40:45;;;;;;;;;;;;;;;14.57;60.40;101597.22;145002;923;1020;-88
2022/02/20 09:43:14;;;;;;;;;;;;;;;14.63;60.11;101593.88;145002;922;1018;-88
2022/02/20 09:45:54;;;;;;;;;;;;;;;14.73;60.50;101590.69;145002;923;1018;-88
2022/02/20 09:48:20;;;;;;;;;;;;;;;14.62;60.98;101607.78;145001;710;2000;-85
2022/02/20 09:50:46;;;;;;;;;;;;;;;14.72;60.43;101603.72;145002;923;1020;-88
2022/02/20 09:53:13;;;;;;;;;;;;;;;14.79;59.94;101597.78;145002;919;1017;-86
2022/02/20 09:55:39;;;;;;;;;;;;;;;14.83;59.99;101592.69;145002;923;1018;-85
2022/02/20 09:58:05;;;;;;;;;;;;;;;14.86;59.93;101597.13;145002;922;1021;-87
2022/02/20 10:00:31;;;;;;;;;;;;;;;14.87;59.77;101589.31;145002;873;1017;-87
2022/02/20 10:03:02;;;;;;;;;;;;;;;14.93;59.62;101598.16;145002;892;1020;-83
2022/02/20 10:05:29;;;;;;;;;;;;;;;14.88;59.71;101596.31;145002;922;1019;-84
2022/02/20 10:07:55;;;;;;;;;;;;;;;14.81;59.89;101591.78;145002;923;1020;-87
2022/02/20 10:10:25;;;;;;;;;;;;;;;14.84;59.58;101583.13;145001;923;2000;-86
2022/02/20 10:13:01;;;;;;;;;;;;;;;14.86;59.84;101578.84;145001;922;2000;-85
2022/02/20 10:15:31;;;;;;;;;;;;;;;14.80;60.21;101576.94;145002;923;1017;-87
2022/02/20 10:18:25;;;;;;;;;;;;;;;14.81;59.82;101578.72;145002;923;1020;-85
2022/02/20 10:21:00;;;;;;;;;;;;;;;14.83;59.81;101577.00;145002;922;1020;-84
2022/02/20 10:23:35;;;;;;;;;;;;;;;14.85;59.90;101583.16;145002;923;1017;-84
2022/02/20 10:26:10;;;;;;;;;;;;;;;14.87;60.11;101591.03;145002;922;1020;-86
2022/02/20 10:28:37;;;;;;;;;;;;;;;14.93;60.46;101590.31;145002;922;1017;-85
2022/02/20 10:31:03;;;;;;;;;;;;;;;15.01;60.00;101588.78;145002;923;1017;-83
2022/02/20 10:33:35;;;;;;;;;;;;;;;15.04;59.26;101578.41;145002;733;1429;-88
2022/02/20 10:36:34;;;;;;;;;;;;;;;15.13;60.03;101562.94;145002;656;1380;-87
2022/02/20 10:39:33;;;;;;;;;;;;;;;;;;;;;
2022/02/20 10:42:19;;;;;;;;;;;;;;;15.38;59.35;101573.97;145002;615;1374;-84
2022/02/20 10:45:15;;;;;;;;;;;;;;;15.46;59.20;101561.09;145002;926;1016;-86
2022/02/20 10:47:46;;;;;;;;;;;;;;;15.55;59.01;101561.31;145002;919;1017;-88
2022/02/20 10:50:17;;;;;;;;;;;;;;;15.50;59.03;101562.94;145002;921;1019;-83
2022/02/20 10:52:46;;;;;;;;;;;;;;;15.53;58.81;101558.66;145002;918;1018;-85
2022/02/20 10:55:13;;;;;;;;;;;;;;;15.11;57.96;101548.06;145002;922;1019;-86
2022/02/20 10:57:40;;;;;;;;;;;;;;;15.16;59.84;101551.66;145002;918;1019;-84
2022/02/20 11:00:17;;;;;;;;;;;;;;;15.19;59.34;101547.41;145002;922;1023;-83
2022/02/20 11:02:43;;;;;;;;;;;;;;;14.95;59.77;101542.44;145002;918;1024;-83
2022/02/20 11:05:12;;;;;;;;;;;;;;;15.01;59.31;101542.59;145002;922;1020;-85
2022/02/20 11:07:38;;;;;;;;;;;;;;;15.04;59.83;101541.81;145002;918;1020;-83
2022/02/20 11:10:05;;;;;;;;;;;;;;;15.03;59.64;101529.56;145002;921;1024;-83
2022/02/20 11:12:35;;;;;;;;;;;;;;;14.91;60.50;101535.37;145002;918;1023;-85
2022/02/20 11:15:04;;;;;;;;;;;;;;;14.98;60.06;101537.28;145003;922;1020;-85
2022/02/20 11:17:30;;;;;;;;;;;;;;;14.85;60.87;101533.50;145003;920;1022;-85
2022/02/20 11:19:58;;;;;;;;;;;;;;;14.76;61.10;101527.16;145003;924;1020;-85
2022/02/20 11:22:37;;;;;;;;;;;;;;;14.76;60.84;101533.28;145003;920;1021;-83
2022/02/20 11:25:05;;;;;;;;;;;;;;;14.69;62.23;101534.81;145003;925;1019;-86
2022/02/20 11:27:32;;;;;;;;;;;;;;;14.50;62.40;101528.19;145003;919;1017;-85
2022/02/20 11:29:58;;;;;;;;;;;;;;;14.57;61.23;101525.75;145003;924;1017;-84
2022/02/20 11:32:24;;;;;;;;;;;;;;;14.64;61.70;101535.56;145003;917;1021;-85
2022/02/20 11:34:53;;;;;;;;;;;;;;;14.74;61.26;101534.94;145003;920;1018;-85
2022/02/20 11:37:21;;;;;;;;;;;;;;;14.87;60.79;101529.22;145003;920;1020;-84
2022/02/20 11:40:00;;;;;;;;;;;;;;;14.85;60.48;101517.81;145003;920;1020;-85
2022/02/20 11:42:26;;;;;;;;;;;;;;;14.89;60.58;101521.41;145003;920;1018;-83
2022/02/20 11:45:10;;;;;;;;;;;;;;;14.95;60.86;101518.91;145002;924;1017;-85
2022/02/20 11:47:40;;;;;;;;;;;;;;;15.03;60.30;101513.88;145002;920;1020;-81
2022/02/20 11:50:37;;;;;;;;;;;;;;;15.09;60.45;101503.56;145002;924;1019;-84
2022/02/20 11:53:05;;;;;;;;;;;;;;;15.08;60.47;101514.91;145002;920;1020;-84
2022/02/20 11:55:33;;;;;;;;;;;;;;;15.09;60.23;101507.91;145002;924;1019;-88
2022/02/20 11:58:31;;;;;;;;;;;;;;;15.01;60.46;101507.72;145002;920;1022;-84
2022/02/20 12:01:07;;;;;;;;;;;;;;;15.10;60.61;101505.34;145002;924;1021;-84
2022/02/20 12:03:53;;;;;;;;;;;;;;;15.14;60.53;101507.16;145002;919;1019;-85
2022/02/20 12:06:23;;;;;;;;;;;;;;;15.20;60.31;101499.47;145002;924;1023;-85
2022/02/20 12:08:57;;;;;;;;;;;;;;;15.27;60.61;101497.00;145002;920;1019;-87
2022/02/20 12:11:51;;;;;;;;;;;;;;;15.38;60.13;101498.13;145002;923;1019;-86
2022/02/20 12:14:22;;;;;;;;;;;;;;;15.50;60.04;101492.28;145002;919;1018;-87
2022/02/20 12:16:54;;;;;;;;;;;;;;;15.57;59.97;101497.69;145002;924;1017;-86
2022/02/20 12:19:33;;;;;;;;;;;;;;;15.66;60.08;101493.50;145002;919;1020;-87
2022/02/20 12:22:06;;;;;;;;;;;;;;;15.73;59.72;101496.28;145002;924;1016;-85
2022/02/20 12:24:43;;;;;;;;;;;;;;;15.67;60.04;101485.69;145002;920;1021;-84
2022/02/20 12:27:13;;;;;;;;;;;;;;;15.73;59.98;101492.75;145002;924;1019;-86
2022/02/20 12:29:46;;;;;;;;;;;;;;;15.69;60.32;101485.72;145002;920;1020;-84
2022/02/20 12:32:18;;;;;;;;;;;;;;;15.69;60.35;101494.44;145002;923;1017;-87
2022/02/20 12:35:10;;;;;;;;;;;;;;;15.74;60.26;101490.19;145002;920;1019;-84
2022/02/20 12:37:41;;;;;;;;;;;;;;;15.78;60.51;101489.44;145001;924;2002;-85
2022/02/20 12:40:12;;;;;;;;;;;;;;;15.83;60.05;101486.91;145002;922;1021;-85
2022/02/20 12:42:40;;;;;;;;;;;;;;;15.85;59.56;101481.72;145002;926;1019;-86
2022/02/20 12:45:07;;;;;;;;;;;;;;;15.88;60.05;101485.28;145002;922;1020;-83
2022/02/20 12:47:34;;;;;;;;;;;;;;;15.88;60.01;101482.66;145002;925;1019;-86
2022/02/20 12:50:01;;;;;;;;;;;;;;;15.87;59.81;101483.50;145002;921;1017;-85
2022/02/20 12:52:31;;;;;;;;;;;;;;;15.55;59.92;101472.34;145002;926;1019;-86
2022/02/20 12:54:57;;;;;;;;;;;;;;;15.64;60.33;101483.00;145002;921;1017;-84
2022/02/20 12:57:26;;;;;;;;;;;;;;;15.70;60.81;101474.37;145002;926;1017;-83
2022/02/20 13:00:04;;;;;;;;;;;;;;;15.74;60.23;101478.84;145002;922;1018;-84
2022/02/20 13:02:34;;;;;;;;;;;;;;;15.49;60.58;101478.31;145002;926;1020;-83
2022/02/20 13:05:07;;;;;;;;;;;;;;;15.54;60.88;101476.69;145002;922;1017;-83
2022/02/20 13:07:44;;;;;;;;;;;;;;;15.59;60.71;101475.06;145002;926;1017;-84
2022/02/20 13:10:17;;;;;;;;;;;;;;;15.52;60.55;101472.25;145002;922;1017;-84
2022/02/20 13:12:53;;;;;;;;;;;;;;;15.46;60.68;101452.06;145002;926;1019;-85
2022/02/20 13:15:19;;;;;;;;;;;;;;;15.55;60.85;101454.00;145002;922;1017;-84
2022/02/20 13:17:53;;;;;;;;;;;;;;;15.42;61.17;101460.72;145002;926;1017;-85
2022/02/20 13:20:29;;;;;;;;;;;;;;;15.53;60.82;101469.69;145002;922;1020;-84
2022/02/20 13:23:01;;;;;;;;;;;;;;;15.55;61.21;101456.63;145002;926;1017;-86
2022/02/20 13:25:31;;;;;;;;;;;;;;;15.57;61.04;101468.00;145002;921;1021;-84
2022/02/20 13:28:00;;;;;;;;;;;;;;;15.28;62.49;101456.91;145002;926;1019;-85
2022/02/20 13:30:28;;;;;;;;;;;;;;;15.18;63.31;101453.22;145002;922;1018;-85
2022/02/20 13:32:54;;;;;;;;;;;;;;;15.19;63.24;101444.50;145002;926;1021;-82